Flugplatz Adolf Würth

Bericht für EDTY

vom 15.07. um 17:20 UTC

Wind 6 kt aus 280°

Sichtweite 10 km oder mehr

gering bewölkt in 2100 ft

Temperatur 18.0°C

Taupunkt 11.0°C

Luftfeuchtigkeit 64%

Luftdruck 1015 hPa

EDTY 151720Z 28006KT 230V310 9999 FEW021 18/11 Q1015

Prognose für EDTY

vom 15.07. um 17:00 UTC

Zwischen 18:00 UTC und 03:00 UTC

Wind 5 kt aus 260°

Sichtweite 10 km oder mehr

aufgelockert bewölkt in 2000 ft


Zwischen 18:00 UTC und 21:00 UTC zeitweise mit einer Wahrscheinlichkeit von 30%

Regenschauer

aufgebrochene Bewölkung in 1500 ft

TAF EDTY 151700Z 1518/1603 26005KT 9999 SCT020 PROB30 TEMPO 1518/1521 SHRA BKN015TCU
Impressum